createdAt,value
2023-05-22T00:00:15.319Z,17.55
2023-05-22T00:00:47.008Z,17.48
2023-05-22T00:01:21.470Z,17.47
2023-05-22T00:01:56.219Z,17.45
2023-05-22T00:02:28.536Z,17.45
2023-05-22T00:03:00.846Z,17.42
2023-05-22T00:03:33.472Z,17.38
2023-05-22T00:04:05.277Z,17.37
2023-05-22T00:04:36.945Z,17.30
2023-05-22T00:05:15.299Z,17.28
2023-05-22T00:05:48.347Z,17.24
2023-05-22T00:06:20.348Z,17.26
2023-05-22T00:06:52.092Z,17.24
2023-05-22T00:07:24.365Z,17.26
2023-05-22T00:07:56.467Z,17.23
2023-05-22T00:08:29.901Z,17.24
2023-05-22T00:09:01.904Z,17.26
2023-05-22T00:09:33.571Z,17.23
2023-05-22T00:10:06.653Z,17.20
2023-05-22T00:10:39.267Z,17.17
2023-05-22T00:11:11.041Z,17.16
2023-05-22T00:11:43.175Z,17.11
2023-05-22T00:12:14.859Z,17.08
2023-05-22T00:12:46.511Z,17.04
2023-05-22T00:13:18.347Z,17.06
2023-05-22T00:13:50.375Z,17.03
2023-05-22T00:14:22.140Z,17.04
2023-05-22T00:14:53.891Z,17.04
2023-05-22T00:15:25.725Z,17.04
2023-05-22T00:15:57.750Z,17.00
2023-05-22T00:16:29.553Z,16.97
2023-05-22T00:17:01.361Z,16.93
2023-05-22T00:17:34.338Z,16.91
2023-05-22T00:18:06.544Z,16.90
2023-05-22T00:18:38.313Z,16.86
2023-05-22T00:19:13.555Z,16.86
2023-05-22T00:19:46.458Z,16.81
2023-05-22T00:20:18.111Z,16.83
2023-05-22T00:20:50.355Z,16.84
2023-05-22T00:21:22.117Z,16.84
2023-05-22T00:21:54.494Z,16.87
2023-05-22T00:22:28.410Z,16.86
2023-05-22T00:23:01.282Z,16.86
2023-05-22T00:23:32.956Z,16.81
2023-05-22T00:24:04.933Z,16.77
2023-05-22T00:24:36.572Z,16.68
2023-05-22T00:25:09.004Z,16.68
2023-05-22T00:25:40.765Z,16.65
2023-05-22T00:26:19.264Z,16.63
2023-05-22T00:26:50.937Z,16.62
2023-05-22T00:27:22.571Z,16.63
2023-05-22T00:27:54.309Z,16.62
2023-05-22T00:28:26.403Z,16.59
2023-05-22T00:28:58.057Z,16.56
2023-05-22T00:29:29.777Z,16.58
2023-05-22T00:30:01.698Z,16.58
2023-05-22T00:30:33.499Z,16.52
2023-05-22T00:31:05.391Z,16.47
2023-05-22T00:31:37.179Z,16.45
2023-05-22T00:32:08.799Z,16.36
2023-05-22T00:32:40.818Z,16.38
2023-05-22T00:33:13.021Z,16.41
2023-05-22T00:33:44.710Z,16.39
2023-05-22T00:34:16.482Z,16.35
2023-05-22T00:34:48.261Z,16.33
2023-05-22T00:35:19.943Z,16.35
2023-05-22T00:35:51.584Z,16.33
2023-05-22T00:36:23.408Z,16.36
2023-05-22T00:36:55.329Z,16.41
2023-05-22T00:37:27.379Z,16.41
2023-05-22T00:37:59.067Z,16.36
2023-05-22T00:38:35.789Z,16.35
2023-05-22T00:39:07.568Z,16.32
2023-05-22T00:39:39.248Z,16.29
2023-05-22T00:40:12.091Z,16.22
2023-05-22T00:40:43.789Z,16.18
2023-05-22T00:41:15.692Z,16.21
2023-05-22T00:41:47.975Z,16.18
2023-05-22T00:42:19.884Z,16.18
2023-05-22T00:42:51.577Z,16.17
2023-05-22T00:43:23.336Z,16.14
2023-05-22T00:43:55.002Z,16.12
2023-05-22T00:44:27.199Z,16.14
2023-05-22T00:44:58.925Z,16.04
2023-05-22T00:45:31.146Z,16.05
2023-05-22T00:46:02.848Z,16.04
2023-05-22T00:46:34.561Z,16.05
2023-05-22T00:47:06.462Z,16.11
2023-05-22T00:47:38.202Z,16.12
2023-05-22T00:48:10.047Z,16.14
2023-05-22T00:48:41.694Z,16.17
2023-05-22T00:49:13.348Z,16.20
2023-05-22T00:49:46.612Z,16.24
2023-05-22T00:50:19.756Z,16.25
2023-05-22T00:50:52.482Z,16.26
2023-05-22T00:51:25.220Z,16.26
2023-05-22T00:51:57.197Z,16.28
2023-05-22T00:52:29.050Z,16.21
2023-05-22T00:53:01.212Z,16.17
2023-05-22T00:53:33.734Z,16.10
2023-05-22T00:54:06.248Z,16.10
2023-05-22T00:54:38.148Z,16.05
2023-05-22T00:55:12.308Z,16.04
2023-05-22T00:55:44.676Z,16.08
2023-05-22T00:56:17.063Z,16.11
2023-05-22T00:56:49.292Z,16.14
2023-05-22T00:57:22.332Z,16.11
2023-05-22T00:57:54.231Z,16.12
2023-05-22T00:58:27.188Z,16.17
2023-05-22T00:58:59.522Z,16.15
2023-05-22T00:59:31.635Z,16.11
2023-05-22T01:00:06.318Z,16.11
2023-05-22T01:00:40.114Z,16.22
2023-05-22T01:01:12.140Z,16.21
2023-05-22T01:01:45.193Z,16.18
2023-05-22T01:02:16.994Z,16.12
2023-05-22T01:02:48.910Z,16.18
2023-05-22T01:03:26.884Z,16.18
2023-05-22T01:04:04.023Z,16.18
2023-05-22T01:04:37.303Z,16.18
2023-05-22T01:05:11.279Z,16.17
2023-05-22T01:05:43.171Z,16.12
2023-05-22T01:06:16.357Z,16.15
2023-05-22T01:06:48.065Z,16.11
2023-05-22T01:07:19.734Z,16.17
2023-05-22T01:07:51.896Z,16.15
2023-05-22T01:08:23.798Z,16.14
2023-05-22T01:08:55.566Z,16.11
2023-05-22T01:09:27.212Z,16.05
2023-05-22T01:09:59.167Z,16.02
2023-05-22T01:10:31.970Z,15.94
2023-05-22T01:11:50.933Z,15.81
2023-05-22T01:12:44.166Z,15.74
2023-05-22T01:13:24.766Z,15.74
2023-05-22T01:14:21.848Z,15.63
2023-05-22T01:15:18.501Z,15.60
2023-05-22T01:16:14.385Z,15.60
2023-05-22T01:17:22.864Z,15.61
2023-05-22T01:18:06.915Z,15.67
2023-05-22T01:18:43.930Z,15.66
2023-05-22T01:20:07.650Z,15.63
2023-05-22T01:20:48.887Z,15.57
2023-05-22T01:21:53.119Z,15.50
2023-05-22T01:23:02.770Z,15.54
2023-05-22T01:24:03.568Z,15.43
2023-05-22T01:24:59.273Z,15.40
2023-05-22T01:26:08.100Z,15.43
2023-05-22T01:26:54.695Z,15.43
2023-05-22T01:27:42.269Z,15.42
2023-05-22T01:28:19.848Z,15.40
2023-05-22T01:29:23.860Z,15.43
2023-05-22T01:30:01.324Z,15.42
2023-05-22T01:31:09.241Z,15.47
2023-05-22T01:31:42.169Z,15.46
2023-05-22T01:32:17.677Z,15.50
2023-05-22T01:32:50.284Z,15.54
2023-05-22T01:33:26.186Z,15.57
2023-05-22T01:34:01.373Z,15.60
2023-05-22T01:34:36.566Z,15.57
2023-05-22T01:35:11.852Z,15.59
2023-05-22T01:35:49.739Z,15.63
2023-05-22T01:36:25.190Z,15.63
2023-05-22T01:36:58.208Z,15.64
2023-05-22T01:37:30.809Z,15.56
2023-05-22T01:38:03.413Z,15.49
2023-05-22T01:38:36.312Z,15.39
2023-05-22T01:39:08.580Z,15.39
2023-05-22T01:39:41.979Z,15.32
2023-05-22T01:40:13.890Z,15.08
2023-05-22T01:40:46.595Z,15.08
2023-05-22T01:41:18.906Z,15.03
2023-05-22T01:41:50.727Z,14.96
2023-05-22T01:42:22.728Z,14.95
2023-05-22T01:42:54.660Z,14.95
2023-05-22T01:43:27.005Z,14.94
2023-05-22T01:44:00.381Z,14.84
2023-05-22T01:44:32.075Z,14.82
2023-05-22T01:45:04.336Z,14.78
2023-05-22T01:45:36.040Z,14.74
2023-05-22T01:46:08.019Z,14.70
2023-05-22T01:46:39.727Z,14.70
2023-05-22T01:47:11.547Z,14.67
2023-05-22T01:47:45.107Z,14.70
2023-05-22T01:48:16.919Z,14.70
2023-05-22T01:48:48.550Z,14.63
2023-05-22T01:49:20.488Z,14.61
2023-05-22T01:49:52.950Z,14.60
2023-05-22T01:50:25.108Z,14.63
2023-05-22T01:51:03.857Z,14.54
2023-05-22T01:51:53.733Z,14.54
2023-05-22T01:52:40.011Z,14.40
2023-05-22T01:53:39.319Z,14.50
2023-05-22T01:54:20.179Z,14.57
2023-05-22T01:55:17.578Z,14.51
2023-05-22T01:55:55.902Z,14.50
2023-05-22T01:56:36.748Z,14.45
2023-05-22T01:57:30.105Z,14.43
2023-05-22T01:58:10.609Z,14.45
2023-05-22T01:58:49.811Z,14.48
2023-05-22T01:59:31.028Z,14.56
2023-05-22T02:00:15.500Z,14.61
2023-05-22T02:00:48.163Z,14.63
2023-05-22T02:01:22.614Z,14.65
2023-05-22T02:01:55.639Z,14.68
2023-05-22T02:02:28.656Z,14.74
2023-05-22T02:03:12.359Z,14.78
2023-05-22T02:03:47.262Z,14.81
2023-05-22T02:04:23.253Z,14.85
2023-05-22T02:05:00.779Z,14.88
2023-05-22T02:05:35.925Z,14.89
2023-05-22T02:06:10.120Z,14.92
2023-05-22T02:06:43.097Z,14.96
2023-05-22T02:07:17.407Z,15.03
2023-05-22T02:07:50.228Z,15.02
2023-05-22T02:08:23.060Z,15.01
2023-05-22T02:08:55.673Z,14.98
2023-05-22T02:09:31.988Z,15.03
2023-05-22T02:10:04.167Z,15.03
2023-05-22T02:10:37.954Z,15.02
2023-05-22T02:11:11.379Z,15.03
2023-05-22T02:11:43.506Z,14.92
2023-05-22T02:12:15.937Z,14.99
2023-05-22T02:12:48.432Z,14.95
2023-05-22T02:13:20.964Z,14.98
2023-05-22T02:13:52.917Z,15.08
2023-05-22T02:14:25.456Z,15.18
2023-05-22T02:14:57.539Z,15.28
2023-05-22T02:15:29.819Z,15.26
2023-05-22T02:16:01.837Z,15.21
2023-05-22T02:16:33.655Z,15.23
2023-05-22T02:17:05.968Z,15.26
2023-05-22T02:17:41.013Z,15.23
2023-05-22T02:18:16.464Z,15.25
2023-05-22T02:18:48.436Z,15.23
2023-05-22T02:19:20.255Z,15.28
2023-05-22T02:19:52.266Z,15.32
2023-05-22T02:20:24.032Z,15.29
2023-05-22T02:21:00.121Z,15.31
2023-05-22T02:21:35.492Z,15.25
2023-05-22T02:22:09.988Z,15.23
2023-05-22T02:22:46.071Z,15.26
2023-05-22T02:23:17.841Z,15.26
2023-05-22T02:23:49.670Z,15.31
2023-05-22T02:24:21.810Z,15.31
2023-05-22T02:24:53.502Z,15.33
2023-05-22T02:25:25.480Z,15.33
2023-05-22T02:25:57.338Z,15.42
2023-05-22T02:26:29.158Z,15.36
2023-05-22T02:27:01.611Z,15.36
2023-05-22T02:27:33.286Z,15.35
2023-05-22T02:28:05.016Z,15.36
2023-05-22T02:28:36.748Z,15.38
2023-05-22T02:29:08.548Z,15.29
2023-05-22T02:29:41.045Z,15.32
2023-05-22T02:30:13.867Z,15.36
2023-05-22T02:30:45.540Z,15.33
2023-05-22T02:31:18.437Z,15.35
2023-05-22T02:31:50.293Z,15.38
2023-05-22T02:32:22.115Z,15.39
2023-05-22T02:32:54.472Z,15.40
2023-05-22T02:33:27.136Z,15.43
2023-05-22T02:33:58.809Z,15.35
2023-05-22T02:34:33.762Z,15.31
2023-05-22T02:35:05.956Z,15.23
2023-05-22T02:35:37.644Z,15.26
2023-05-22T02:36:11.012Z,15.23
2023-05-22T02:36:42.645Z,15.23
2023-05-22T02:37:16.033Z,15.22
2023-05-22T02:37:47.710Z,15.22
2023-05-22T02:38:19.450Z,15.19
2023-05-22T02:38:51.454Z,15.16
2023-05-22T02:39:23.301Z,15.21
2023-05-22T02:39:55.077Z,15.21
2023-05-22T02:40:26.866Z,15.22
2023-05-22T02:40:58.521Z,15.21
2023-05-22T02:41:30.405Z,15.18
2023-05-22T02:42:02.121Z,15.21
2023-05-22T02:42:34.625Z,15.21
2023-05-22T02:43:06.546Z,15.21
2023-05-22T02:43:38.203Z,15.21
2023-05-22T02:44:09.839Z,15.18
2023-05-22T02:44:41.718Z,15.12
2023-05-22T02:45:13.392Z,15.16
2023-05-22T02:45:45.229Z,15.18
2023-05-22T02:46:16.932Z,15.19
2023-05-22T02:46:48.700Z,15.22
2023-05-22T02:47:20.466Z,15.18
2023-05-22T02:47:52.159Z,15.19
2023-05-22T02:48:24.112Z,15.21
2023-05-22T02:48:55.849Z,15.26
2023-05-22T02:49:27.512Z,15.29
2023-05-22T02:49:59.323Z,15.32
2023-05-22T02:50:31.038Z,15.29
2023-05-22T02:51:02.934Z,15.18
2023-05-22T02:51:34.564Z,15.15
2023-05-22T02:52:06.425Z,15.09
2023-05-22T02:52:39.539Z,15.08
2023-05-22T02:53:11.312Z,15.03
2023-05-22T02:53:42.960Z,14.99
2023-05-22T02:54:16.044Z,14.91
2023-05-22T02:54:47.823Z,14.92
2023-05-22T02:55:19.557Z,14.89
2023-05-22T02:55:53.104Z,14.88
2023-05-22T02:56:27.859Z,14.84
2023-05-22T02:56:59.507Z,14.81
2023-05-22T02:57:31.746Z,14.85
2023-05-22T02:58:03.432Z,14.80
2023-05-22T02:58:35.418Z,14.81
2023-05-22T02:59:07.090Z,14.82
2023-05-22T02:59:38.883Z,14.84
2023-05-22T03:00:11.786Z,14.89
2023-05-22T03:00:43.467Z,14.88
2023-05-22T03:01:15.660Z,14.87
2023-05-22T03:01:48.645Z,14.88
2023-05-22T03:02:20.323Z,14.88
2023-05-22T03:02:52.150Z,14.94
2023-05-22T03:03:25.282Z,14.94
2023-05-22T03:03:57.565Z,14.89
2023-05-22T03:04:29.795Z,14.91
2023-05-22T03:05:01.443Z,14.92
2023-05-22T03:05:33.778Z,14.96
2023-05-22T03:06:06.332Z,14.98
2023-05-22T03:06:38.385Z,15.02
2023-05-22T03:07:10.200Z,15.03
2023-05-22T03:07:42.801Z,15.05
2023-05-22T03:08:16.101Z,15.03
2023-05-22T03:08:48.804Z,14.96
2023-05-22T03:09:20.501Z,14.95
2023-05-22T03:09:52.937Z,14.96
2023-05-22T03:10:24.902Z,14.92
2023-05-22T03:11:00.467Z,14.92
2023-05-22T03:11:32.832Z,14.91
2023-05-22T03:12:07.639Z,14.92
2023-05-22T03:12:39.313Z,14.94
2023-05-22T03:13:10.968Z,14.92
2023-05-22T03:13:42.572Z,14.99
2023-05-22T03:14:14.286Z,14.96
2023-05-22T03:14:46.931Z,14.94
2023-05-22T03:15:19.241Z,14.94
2023-05-22T03:15:51.411Z,14.96
2023-05-22T03:16:23.148Z,14.95
2023-05-22T03:16:55.870Z,14.91
2023-05-22T03:17:27.514Z,14.96
2023-05-22T03:17:59.262Z,14.98
2023-05-22T03:18:30.920Z,14.96
2023-05-22T03:19:13.987Z,14.99
2023-05-22T03:19:45.901Z,15.03
2023-05-22T03:20:18.329Z,15.03
2023-05-22T03:20:50.049Z,15.06
2023-05-22T03:21:21.738Z,15.05
2023-05-22T03:21:53.446Z,15.09
2023-05-22T03:22:25.105Z,15.01
2023-05-22T03:22:56.754Z,15.03
2023-05-22T03:23:28.406Z,14.92
2023-05-22T03:24:00.077Z,14.91
2023-05-22T03:24:32.349Z,14.89
2023-05-22T03:25:06.447Z,14.85
2023-05-22T03:25:38.116Z,14.82
2023-05-22T03:26:09.773Z,14.82
2023-05-22T03:26:42.084Z,14.75
2023-05-22T03:27:17.295Z,14.75
2023-05-22T03:27:49.061Z,14.74
2023-05-22T03:28:20.812Z,14.70
2023-05-22T03:28:52.559Z,14.70
2023-05-22T03:29:24.253Z,14.68
2023-05-22T03:29:55.876Z,14.59
2023-05-22T03:30:27.491Z,14.53
2023-05-22T03:30:59.190Z,14.54
2023-05-22T03:31:32.752Z,14.51
2023-05-22T03:32:04.741Z,14.45
2023-05-22T03:32:39.494Z,14.45
2023-05-22T03:33:11.894Z,14.44
2023-05-22T03:33:43.603Z,14.48
2023-05-22T03:34:16.709Z,14.51
2023-05-22T03:34:48.315Z,14.57
2023-05-22T03:35:20.198Z,14.51
2023-05-22T03:35:52.071Z,14.56
2023-05-22T03:36:23.726Z,14.59
2023-05-22T03:36:57.446Z,14.50
2023-05-22T03:37:29.159Z,14.53
2023-05-22T03:38:00.924Z,14.40
2023-05-22T03:38:32.583Z,14.48
2023-05-22T03:39:04.509Z,14.45
2023-05-22T03:39:36.775Z,14.41
2023-05-22T03:40:08.826Z,14.37
2023-05-22T03:40:40.827Z,14.33
2023-05-22T03:41:12.809Z,14.45
2023-05-22T03:41:44.528Z,14.47
2023-05-22T03:42:16.447Z,14.51
2023-05-22T03:42:49.539Z,14.53
2023-05-22T03:43:21.206Z,14.60
2023-05-22T03:43:52.955Z,14.57
2023-05-22T03:44:24.742Z,14.59
2023-05-22T03:44:56.486Z,14.60
2023-05-22T03:45:28.139Z,14.57
2023-05-22T03:45:59.987Z,14.56
2023-05-22T03:46:31.761Z,14.61
2023-05-22T03:47:03.580Z,14.61
2023-05-22T03:47:35.250Z,14.64
2023-05-22T03:48:06.950Z,14.64
2023-05-22T03:48:39.136Z,14.61
2023-05-22T03:49:10.907Z,14.64
2023-05-22T03:49:42.675Z,14.71
2023-05-22T03:50:14.386Z,14.75
2023-05-22T03:50:46.026Z,14.81
2023-05-22T03:51:20.077Z,14.85
2023-05-22T03:51:52.095Z,14.85
2023-05-22T03:52:23.861Z,14.89
2023-05-22T03:52:55.495Z,14.89
2023-05-22T03:53:27.183Z,14.89
2023-05-22T03:53:58.811Z,14.91
2023-05-22T03:54:30.462Z,14.91
2023-05-22T03:55:02.126Z,14.96
2023-05-22T03:55:34.016Z,14.99
2023-05-22T03:56:05.900Z,14.99
2023-05-22T03:56:37.797Z,14.99
2023-05-22T03:57:09.498Z,14.95
2023-05-22T03:57:41.202Z,14.94
2023-05-22T03:58:12.864Z,14.99
2023-05-22T03:58:44.479Z,15.03
2023-05-22T03:59:16.519Z,14.91
2023-05-22T03:59:48.309Z,14.92
2023-05-22T04:00:20.205Z,14.89
2023-05-22T04:00:58.682Z,14.87
2023-05-22T04:01:31.098Z,14.74
2023-05-22T04:02:02.845Z,14.70
2023-05-22T04:02:34.538Z,14.61
2023-05-22T04:03:07.349Z,14.65
2023-05-22T04:03:39.183Z,14.61
2023-05-22T04:04:12.275Z,14.67
2023-05-22T04:04:46.357Z,14.65
2023-05-22T04:05:18.261Z,14.67
2023-05-22T04:05:50.067Z,14.65
2023-05-22T04:06:21.950Z,14.67
2023-05-22T04:06:54.086Z,14.70
2023-05-22T04:07:25.785Z,14.70
2023-05-22T04:07:57.819Z,14.67
2023-05-22T04:08:30.726Z,14.70
2023-05-22T04:09:02.376Z,14.74
2023-05-22T04:09:35.745Z,14.81
2023-05-22T04:10:08.008Z,14.85
2023-05-22T04:10:40.174Z,14.85
2023-05-22T04:11:15.759Z,14.91
2023-05-22T04:11:48.853Z,14.92
2023-05-22T04:12:20.502Z,14.94
2023-05-22T04:12:52.153Z,14.96
2023-05-22T04:13:23.859Z,15.01
2023-05-22T04:13:55.562Z,14.96
2023-05-22T04:14:27.677Z,15.01
2023-05-22T04:14:59.375Z,15.01
2023-05-22T04:15:33.909Z,14.99
2023-05-22T04:16:05.687Z,14.89
2023-05-22T04:16:37.471Z,14.89
2023-05-22T04:17:09.217Z,14.85
2023-05-22T04:17:44.268Z,14.85
2023-05-22T04:18:16.169Z,14.85
2023-05-22T04:18:47.924Z,14.88
2023-05-22T04:19:19.840Z,14.94
2023-05-22T04:19:51.623Z,14.94
2023-05-22T04:20:23.892Z,14.96
2023-05-22T04:20:55.512Z,14.95
2023-05-22T04:21:28.355Z,14.96
2023-05-22T04:22:00.147Z,15.01
2023-05-22T04:22:31.959Z,14.95
2023-05-22T04:23:03.940Z,14.98
2023-05-22T04:23:36.172Z,15.01
2023-05-22T04:24:09.544Z,15.02
2023-05-22T04:24:41.210Z,15.02
2023-05-22T04:25:12.892Z,15.03
2023-05-22T04:25:44.823Z,15.01
2023-05-22T04:26:18.210Z,15.03
2023-05-22T04:26:50.205Z,15.03
2023-05-22T04:27:23.033Z,15.06
2023-05-22T04:27:55.043Z,15.08
2023-05-22T04:28:26.813Z,15.06
2023-05-22T04:28:58.442Z,15.15
2023-05-22T04:29:30.079Z,15.13
2023-05-22T04:30:03.783Z,15.16
2023-05-22T04:30:37.725Z,15.18
2023-05-22T04:31:09.704Z,15.23
2023-05-22T04:31:42.207Z,15.26
2023-05-22T04:32:18.574Z,15.28
2023-05-22T04:32:50.511Z,15.22
2023-05-22T04:33:23.030Z,15.23
2023-05-22T04:33:56.106Z,15.22
2023-05-22T04:34:28.726Z,15.21
2023-05-22T04:35:00.780Z,15.23
2023-05-22T04:35:32.728Z,15.25
2023-05-22T04:36:05.088Z,15.25
2023-05-22T04:36:36.786Z,15.26
2023-05-22T04:37:10.260Z,15.26
2023-05-22T04:37:42.368Z,15.26
2023-05-22T04:38:14.136Z,15.32
2023-05-22T04:38:47.649Z,15.29
2023-05-22T04:39:19.339Z,15.29
2023-05-22T04:39:53.667Z,15.32
2023-05-22T04:40:26.503Z,15.35
2023-05-22T04:40:58.406Z,15.33
2023-05-22T04:41:30.048Z,15.35
2023-05-22T04:42:06.020Z,15.29
2023-05-22T04:42:42.322Z,15.31
2023-05-22T04:43:14.017Z,15.28
2023-05-22T04:43:48.478Z,15.29
2023-05-22T04:44:23.065Z,15.33
2023-05-22T04:44:58.122Z,15.32
2023-05-22T04:45:30.623Z,15.33
2023-05-22T04:46:02.343Z,15.33
2023-05-22T04:46:37.017Z,15.36
2023-05-22T04:47:14.610Z,15.42
2023-05-22T04:47:46.460Z,15.39
2023-05-22T04:48:19.527Z,15.35
2023-05-22T04:48:51.306Z,15.39
2023-05-22T04:49:24.855Z,15.47
2023-05-22T04:49:57.256Z,15.43
2023-05-22T04:50:32.454Z,15.50
2023-05-22T04:51:04.792Z,15.53
2023-05-22T04:51:36.673Z,15.61
2023-05-22T04:52:08.477Z,15.61
2023-05-22T04:52:40.131Z,15.64
2023-05-22T04:53:12.748Z,15.67
2023-05-22T04:53:46.312Z,15.70
2023-05-22T04:54:18.035Z,15.67
2023-05-22T04:54:51.715Z,15.64
2023-05-22T04:55:23.398Z,15.63
2023-05-22T04:55:55.161Z,15.61
2023-05-22T04:56:36.460Z,15.54
2023-05-22T04:57:08.945Z,15.57
2023-05-22T04:57:41.237Z,15.54
2023-05-22T04:58:13.298Z,15.52
2023-05-22T04:58:45.123Z,15.56
2023-05-22T04:59:16.894Z,15.53
2023-05-22T04:59:48.707Z,15.53
2023-05-22T05:00:22.660Z,15.46
2023-05-22T05:00:55.073Z,15.56
2023-05-22T05:01:28.144Z,15.59
2023-05-22T05:02:00.860Z,15.59
2023-05-22T05:02:32.712Z,15.63
2023-05-22T05:03:04.588Z,15.64
2023-05-22T05:03:36.466Z,15.66
2023-05-22T05:04:08.188Z,15.69
2023-05-22T05:04:40.344Z,15.71
2023-05-22T05:05:12.075Z,15.70
2023-05-22T05:05:45.026Z,15.70
2023-05-22T05:06:17.375Z,15.71
2023-05-22T05:06:49.183Z,15.77
2023-05-22T05:07:21.656Z,15.86
2023-05-22T05:07:53.545Z,15.89
2023-05-22T05:08:25.228Z,15.98
2023-05-22T05:08:57.224Z,16.00
2023-05-22T05:09:28.909Z,16.05
2023-05-22T05:10:00.992Z,16.10
2023-05-22T05:10:32.811Z,16.11
2023-05-22T05:11:04.799Z,16.08
2023-05-22T05:11:36.759Z,16.12
2023-05-22T05:12:08.803Z,16.18
2023-05-22T05:12:40.509Z,16.21
2023-05-22T05:13:12.202Z,16.20
2023-05-22T05:13:43.861Z,16.25
2023-05-22T05:14:16.073Z,16.22
2023-05-22T05:14:47.757Z,16.26
2023-05-22T05:15:19.458Z,16.32
2023-05-22T05:15:52.216Z,16.39
2023-05-22T05:16:26.459Z,16.39
2023-05-22T05:16:58.823Z,16.44
2023-05-22T05:17:30.573Z,16.41
2023-05-22T05:18:02.322Z,16.44
2023-05-22T05:18:33.968Z,16.47
2023-05-22T05:19:06.018Z,16.47
2023-05-22T05:19:37.780Z,16.53
2023-05-22T05:20:10.672Z,16.56
2023-05-22T05:20:42.416Z,16.66
2023-05-22T05:21:14.085Z,16.68
2023-05-22T05:21:47.100Z,16.70
2023-05-22T05:22:18.754Z,16.77
2023-05-22T05:22:51.135Z,16.80
2023-05-22T05:23:23.035Z,16.79
2023-05-22T05:23:54.821Z,16.87
2023-05-22T05:24:26.514Z,16.89
2023-05-22T05:24:58.268Z,16.94
2023-05-22T05:25:29.950Z,16.97
2023-05-22T05:26:01.748Z,17.02
2023-05-22T05:26:33.474Z,17.07
2023-05-22T05:27:05.317Z,17.10
2023-05-22T05:27:37.372Z,17.14
2023-05-22T05:28:11.740Z,17.20
2023-05-22T05:28:43.543Z,17.21
2023-05-22T05:29:15.204Z,17.23
2023-05-22T05:29:46.943Z,17.28
2023-05-22T05:30:20.566Z,17.32
2023-05-22T05:30:52.392Z,17.34
2023-05-22T05:31:24.253Z,17.37
2023-05-22T05:31:56.207Z,17.42
2023-05-22T05:32:28.165Z,17.47
2023-05-22T05:32:59.985Z,17.52
2023-05-22T05:33:32.007Z,17.55
2023-05-22T05:34:03.624Z,17.61
2023-05-22T05:34:35.549Z,17.61
2023-05-22T05:35:08.107Z,17.69
2023-05-22T05:35:42.701Z,17.69
2023-05-22T05:36:14.851Z,17.75
2023-05-22T05:36:46.457Z,17.85
2023-05-22T05:37:18.299Z,17.92
2023-05-22T05:37:49.960Z,17.92
2023-05-22T05:38:22.567Z,17.93
2023-05-22T05:38:54.396Z,17.96
2023-05-22T05:39:26.266Z,17.97
2023-05-22T05:39:57.938Z,18.06
2023-05-22T05:40:29.742Z,18.03
2023-05-22T05:41:01.861Z,18.05
2023-05-22T05:41:33.508Z,18.12
2023-05-22T05:42:05.368Z,18.17
2023-05-22T05:42:37.056Z,18.20
2023-05-22T05:43:09.410Z,18.26
2023-05-22T05:43:41.215Z,18.30
2023-05-22T05:44:13.215Z,18.24
2023-05-22T05:44:45.771Z,18.43
2023-05-22T05:45:18.260Z,18.40
2023-05-22T05:45:51.746Z,18.43
2023-05-22T05:46:24.031Z,18.46
2023-05-22T05:46:55.709Z,18.57
2023-05-22T05:47:29.802Z,18.54
2023-05-22T05:48:01.593Z,18.55
2023-05-22T05:48:33.368Z,18.57
2023-05-22T05:49:10.232Z,18.53
2023-05-22T05:49:41.990Z,18.54
2023-05-22T05:50:15.732Z,18.61
2023-05-22T05:50:47.421Z,18.63
2023-05-22T05:51:20.529Z,18.67
2023-05-22T05:51:52.189Z,18.69
2023-05-22T05:52:26.489Z,18.61
2023-05-22T05:52:58.376Z,18.69
2023-05-22T05:53:30.075Z,18.68
2023-05-22T05:54:01.829Z,18.71
2023-05-22T05:54:33.777Z,18.76
2023-05-22T05:55:06.239Z,18.84
2023-05-22T05:55:37.933Z,18.91
2023-05-22T05:56:10.050Z,18.94
2023-05-22T05:56:42.314Z,18.99
2023-05-22T05:57:15.103Z,18.96
2023-05-22T05:57:46.860Z,19.05
2023-05-22T05:58:18.491Z,19.05
2023-05-22T05:58:50.164Z,19.08
2023-05-22T05:59:22.122Z,19.15
2023-05-22T05:59:53.765Z,19.22
2023-05-22T06:00:26.100Z,19.20
2023-05-22T06:00:57.795Z,19.29
2023-05-22T06:01:29.611Z,19.32
2023-05-22T06:02:01.578Z,19.37
2023-05-22T06:02:34.375Z,19.39
2023-05-22T06:03:06.245Z,19.50
2023-05-22T06:03:38.617Z,19.52
2023-05-22T06:04:10.386Z,19.52
2023-05-22T06:04:43.184Z,19.56
2023-05-22T06:05:17.672Z,19.66
2023-05-22T06:05:50.158Z,19.81
2023-05-22T06:06:21.863Z,19.93
2023-05-22T06:06:53.876Z,19.97
2023-05-22T06:07:25.620Z,19.90
2023-05-22T06:07:59.097Z,19.97
2023-05-22T06:08:32.309Z,20.07
2023-05-22T06:09:07.353Z,20.05
2023-05-22T06:09:38.986Z,20.12
2023-05-22T06:10:12.061Z,20.21
2023-05-22T06:10:43.734Z,20.26
2023-05-22T06:11:15.644Z,20.32
2023-05-22T06:11:47.267Z,20.41
2023-05-22T06:12:18.882Z,20.51
2023-05-22T06:12:50.970Z,20.55
2023-05-22T06:13:22.907Z,20.72
2023-05-22T06:13:54.689Z,20.84
2023-05-22T06:14:26.404Z,20.73
2023-05-22T06:14:58.133Z,20.76
2023-05-22T06:15:31.021Z,20.80
2023-05-22T06:16:05.723Z,20.91
2023-05-22T06:16:38.529Z,20.99
2023-05-22T06:17:10.280Z,21.11
2023-05-22T06:17:42.059Z,21.00
2023-05-22T06:18:13.864Z,21.07
2023-05-22T06:18:46.781Z,21.10
2023-05-22T06:19:18.463Z,21.24
2023-05-22T06:19:50.424Z,21.31
2023-05-22T06:20:22.385Z,21.37
2023-05-22T06:20:54.219Z,21.49
2023-05-22T06:21:26.249Z,21.65
2023-05-22T06:21:58.106Z,21.75
2023-05-22T06:22:29.767Z,21.85
2023-05-22T06:23:01.536Z,21.93
2023-05-22T06:23:33.345Z,21.90
2023-05-22T06:24:05.465Z,21.95
2023-05-22T06:24:37.127Z,21.89
2023-05-22T06:25:10.770Z,21.81
2023-05-22T06:25:42.472Z,21.72
2023-05-22T06:26:14.171Z,21.59
2023-05-22T06:26:45.937Z,21.52
2023-05-22T06:27:18.127Z,21.48
2023-05-22T06:27:49.844Z,21.34
2023-05-22T06:28:21.653Z,21.35
2023-05-22T06:28:54.527Z,21.28
2023-05-22T06:29:26.570Z,21.23
2023-05-22T06:29:58.333Z,21.18
2023-05-22T06:30:39.465Z,21.08
2023-05-22T06:31:11.969Z,21.01
2023-05-22T06:31:43.949Z,21.08
2023-05-22T06:32:16.000Z,21.01
2023-05-22T06:32:48.562Z,21.03
2023-05-22T06:33:20.603Z,21.07
2023-05-22T06:33:52.566Z,21.12
2023-05-22T06:34:25.772Z,21.23
2023-05-22T06:34:57.621Z,21.31
2023-05-22T06:35:29.411Z,21.35
2023-05-22T06:36:01.077Z,21.41
2023-05-22T06:36:34.919Z,21.47
2023-05-22T06:37:07.549Z,21.59
2023-05-22T06:37:39.309Z,21.51
2023-05-22T06:38:11.320Z,21.45
2023-05-22T06:38:43.677Z,21.47
2023-05-22T06:39:15.323Z,21.28
2023-05-22T06:39:46.952Z,21.39
2023-05-22T06:40:18.628Z,21.27
2023-05-22T06:40:50.361Z,21.39
2023-05-22T06:41:22.985Z,21.41
2023-05-22T06:41:54.697Z,21.57
2023-05-22T06:42:27.208Z,21.65
2023-05-22T06:42:59.806Z,21.65
2023-05-22T06:43:31.680Z,21.65
2023-05-22T06:44:03.439Z,21.74
2023-05-22T06:44:35.109Z,21.72
2023-05-22T06:45:07.434Z,21.71
2023-05-22T06:45:39.125Z,21.72
2023-05-22T06:46:10.862Z,21.75
2023-05-22T06:46:42.854Z,21.71
2023-05-22T06:47:15.088Z,21.68
2023-05-22T06:47:46.886Z,21.68
2023-05-22T06:48:18.669Z,21.65
2023-05-22T06:48:50.618Z,21.54
2023-05-22T06:49:22.259Z,21.48
2023-05-22T06:49:53.913Z,21.45
2023-05-22T06:50:25.574Z,21.51
2023-05-22T06:50:57.182Z,21.55
2023-05-22T06:51:29.577Z,21.47
2023-05-22T06:52:03.947Z,21.48
2023-05-22T06:52:38.983Z,21.63
2023-05-22T06:53:11.475Z,21.66
2023-05-22T06:53:43.279Z,21.69
2023-05-22T06:54:15.413Z,21.59
2023-05-22T06:54:47.187Z,21.71
2023-05-22T06:55:18.910Z,21.75
2023-05-22T06:55:51.169Z,21.76
2023-05-22T06:56:22.910Z,21.83
2023-05-22T06:56:56.097Z,21.76
2023-05-22T06:57:28.559Z,21.71
2023-05-22T06:58:00.332Z,21.69
2023-05-22T06:58:31.953Z,21.65
2023-05-22T06:59:06.083Z,21.63
2023-05-22T06:59:38.102Z,21.72
2023-05-22T07:00:12.487Z,21.81
2023-05-22T07:00:44.181Z,21.83
2023-05-22T07:01:16.397Z,21.82
2023-05-22T07:01:48.531Z,21.78
2023-05-22T07:02:20.837Z,21.76
2023-05-22T07:02:52.627Z,21.68
2023-05-22T07:03:24.425Z,21.65
2023-05-22T07:04:05.154Z,21.74
2023-05-22T07:04:36.883Z,21.72
2023-05-22T07:05:09.350Z,21.61
2023-05-22T07:05:41.649Z,21.59
2023-05-22T07:06:13.597Z,21.58
2023-05-22T07:06:45.718Z,21.48
2023-05-22T07:07:17.468Z,21.42
2023-05-22T07:07:49.249Z,21.35
2023-05-22T07:08:20.899Z,21.31
2023-05-22T07:08:52.567Z,21.20
2023-05-22T07:09:24.289Z,21.28